createdAt,value
2019-05-19T00:02:25.672Z,43.16
2019-05-19T00:05:00.051Z,43.19
2019-05-19T00:07:34.086Z,43.17
2019-05-19T00:10:09.796Z,43.21
2019-05-19T00:12:43.970Z,43.18
2019-05-19T00:15:18.115Z,43.16
2019-05-19T00:17:53.323Z,43.23
2019-05-19T00:20:27.421Z,43.25
2019-05-19T00:23:01.824Z,43.34
2019-05-19T00:25:36.532Z,43.29
2019-05-19T00:28:11.013Z,43.35
2019-05-19T00:30:45.187Z,43.26
2019-05-19T00:33:19.365Z,43.53
2019-05-19T00:35:53.928Z,43.71
2019-05-19T00:38:28.183Z,44.14
2019-05-19T00:41:02.473Z,44.06
2019-05-19T00:43:36.429Z,44.25
2019-05-19T00:46:10.819Z,44.28
2019-05-19T00:48:44.981Z,44.08
2019-05-19T00:51:19.652Z,43.97
2019-05-19T00:53:53.947Z,43.84
2019-05-19T00:56:28.442Z,43.81
2019-05-19T00:59:05.318Z,43.71
2019-05-19T01:01:39.501Z,43.67
2019-05-19T01:04:13.748Z,43.59
2019-05-19T01:06:48.152Z,43.61
2019-05-19T01:09:22.391Z,43.55
2019-05-19T01:11:56.492Z,43.55
2019-05-19T01:14:30.613Z,43.50
2019-05-19T01:17:04.691Z,43.53
2019-05-19T01:19:38.929Z,43.51
2019-05-19T01:22:14.036Z,43.49
2019-05-19T01:24:48.353Z,43.50
2019-05-19T01:27:22.484Z,43.52
2019-05-19T01:29:56.485Z,43.55
2019-05-19T01:32:30.745Z,43.50
2019-05-19T01:35:04.680Z,43.58
2019-05-19T01:37:39.153Z,43.57
2019-05-19T01:40:13.907Z,43.58
2019-05-19T01:42:48.027Z,43.65
2019-05-19T01:45:22.427Z,43.74
2019-05-19T01:47:56.988Z,43.76
2019-05-19T01:50:32.502Z,43.85
2019-05-19T01:53:06.720Z,43.90
2019-05-19T01:55:40.586Z,43.89
2019-05-19T01:58:14.707Z,44.07
2019-05-19T02:00:48.622Z,44.03
2019-05-19T02:03:22.882Z,44.03
2019-05-19T02:05:57.191Z,44.02
2019-05-19T02:08:31.287Z,43.97
2019-05-19T02:11:05.628Z,44.04
2019-05-19T02:13:39.698Z,44.05
2019-05-19T02:16:13.754Z,44.08
2019-05-19T02:18:48.184Z,44.24
2019-05-19T02:21:22.134Z,44.31
2019-05-19T02:23:56.160Z,44.33
2019-05-19T02:26:30.201Z,44.41
2019-05-19T02:29:04.467Z,44.47
2019-05-19T02:31:39.347Z,44.50
2019-05-19T02:34:13.468Z,44.53
2019-05-19T02:36:47.603Z,44.52
2019-05-19T02:39:21.859Z,44.52
2019-05-19T02:41:58.051Z,44.56
2019-05-19T02:44:33.825Z,44.62
2019-05-19T02:47:08.121Z,44.70
2019-05-19T02:49:44.516Z,44.65
2019-05-19T02:52:19.581Z,44.71
2019-05-19T02:54:53.562Z,44.69
2019-05-19T02:57:28.111Z,44.77
2019-05-19T03:00:02.661Z,44.77
2019-05-19T03:02:37.928Z,44.83
2019-05-19T03:05:12.111Z,44.86
2019-05-19T03:07:46.496Z,44.89
2019-05-19T03:10:20.444Z,45.28
2019-05-19T03:12:54.559Z,45.96
2019-05-19T03:15:28.831Z,46.58
2019-05-19T03:18:02.817Z,46.05
2019-05-19T03:20:37.634Z,45.81
2019-05-19T03:23:11.585Z,45.58
2019-05-19T03:25:45.567Z,45.89
2019-05-19T03:28:19.936Z,46.08
2019-05-19T03:31:12.878Z,45.64
2019-05-19T03:33:48.651Z,45.51
2019-05-19T03:36:22.899Z,45.64
2019-05-19T03:38:57.228Z,45.28
2019-05-19T03:41:31.630Z,45.06
2019-05-19T03:44:05.785Z,44.77
2019-05-19T03:46:40.187Z,44.56
2019-05-19T03:49:14.575Z,44.43
2019-05-19T03:51:49.063Z,44.31
2019-05-19T03:54:23.313Z,44.27
2019-05-19T03:56:57.563Z,44.61
2019-05-19T03:59:31.486Z,44.88
2019-05-19T04:02:05.593Z,44.78
2019-05-19T04:04:39.877Z,45.10
2019-05-19T04:07:14.061Z,45.93
2019-05-19T04:09:47.966Z,46.19
2019-05-19T04:12:22.131Z,46.41
2019-05-19T04:14:56.430Z,46.37
2019-05-19T04:17:30.603Z,48.97
2019-05-19T04:20:05.031Z,49.60
2019-05-19T04:22:39.010Z,49.64
2019-05-19T04:25:13.188Z,49.87
2019-05-19T04:27:47.304Z,50.14
2019-05-19T04:30:21.990Z,50.01
2019-05-19T04:32:55.952Z,50.78
2019-05-19T04:35:30.069Z,50.10
2019-05-19T04:38:04.080Z,49.87
2019-05-19T04:40:38.359Z,49.84
2019-05-19T04:43:12.356Z,49.78
2019-05-19T04:45:47.474Z,49.65
2019-05-19T04:48:21.428Z,50.25
2019-05-19T04:50:55.594Z,50.04
2019-05-19T04:53:29.861Z,49.86
2019-05-19T04:56:04.129Z,49.71
2019-05-19T04:58:38.203Z,49.52
2019-05-19T05:01:12.397Z,49.83
2019-05-19T05:03:46.490Z,50.58
2019-05-19T05:06:21.927Z,50.22
2019-05-19T05:08:56.169Z,49.72
2019-05-19T05:11:30.474Z,49.24
2019-05-19T05:14:04.532Z,48.86
2019-05-19T05:16:38.991Z,48.70
2019-05-19T05:19:13.203Z,48.64
2019-05-19T05:21:47.410Z,48.66
2019-05-19T05:24:21.642Z,48.59
2019-05-19T05:26:57.025Z,48.63
2019-05-19T05:29:31.186Z,48.48
2019-05-19T05:32:05.089Z,48.71
2019-05-19T05:34:40.190Z,48.94
2019-05-19T05:37:14.299Z,49.00
2019-05-19T05:39:48.365Z,49.37
2019-05-19T05:42:22.534Z,49.37
2019-05-19T05:44:56.746Z,49.19
2019-05-19T05:47:30.535Z,49.01
2019-05-19T05:50:04.485Z,48.99
2019-05-19T05:52:39.196Z,48.95
2019-05-19T05:55:13.626Z,48.78
2019-05-19T05:57:47.899Z,48.72
2019-05-19T06:00:22.913Z,48.60
2019-05-19T06:02:57.122Z,48.36
2019-05-19T06:05:31.527Z,48.50
2019-05-19T06:08:05.676Z,48.37
2019-05-19T06:10:39.709Z,48.38
2019-05-19T06:13:13.775Z,48.30
2019-05-19T06:15:48.039Z,48.15
2019-05-19T06:18:22.391Z,48.10
2019-05-19T06:20:56.697Z,48.04
2019-05-19T06:23:31.064Z,48.03
2019-05-19T06:26:05.492Z,47.92
2019-05-19T06:28:39.987Z,47.85
2019-05-19T06:31:15.801Z,47.83
2019-05-19T06:33:49.893Z,47.95
2019-05-19T06:36:23.981Z,48.03
2019-05-19T06:38:58.184Z,48.11
2019-05-19T06:41:32.310Z,48.17
2019-05-19T06:44:06.523Z,48.16
2019-05-19T06:46:40.366Z,48.16
2019-05-19T06:49:14.590Z,48.06
2019-05-19T06:51:48.356Z,48.00
2019-05-19T06:54:22.212Z,47.84
2019-05-19T06:56:56.144Z,47.69
2019-05-19T06:59:30.063Z,47.59
2019-05-19T07:02:04.017Z,47.81
2019-05-19T07:04:37.994Z,47.82
2019-05-19T07:07:12.307Z,47.76
2019-05-19T07:09:57.780Z,47.65
2019-05-19T07:12:21.904Z,47.59
2019-05-19T07:14:56.174Z,47.45
2019-05-19T07:17:30.292Z,47.37
2019-05-19T07:20:04.620Z,47.23
2019-05-19T07:22:39.626Z,47.19
2019-05-19T07:25:15.659Z,47.20
2019-05-19T07:27:49.906Z,47.14
2019-05-19T07:30:24.312Z,47.00
2019-05-19T07:32:58.579Z,46.92
2019-05-19T07:35:32.800Z,46.80
2019-05-19T07:38:07.604Z,46.70
2019-05-19T07:40:42.136Z,46.62
2019-05-19T07:43:16.260Z,45.73
2019-05-19T07:45:50.528Z,45.31
2019-05-19T07:48:24.574Z,45.16
2019-05-19T07:50:58.690Z,45.24
2019-05-19T07:53:42.472Z,45.28
2019-05-19T07:56:08.924Z,45.29
2019-05-19T07:58:44.303Z,45.20
2019-05-19T08:01:18.463Z,45.15
2019-05-19T08:03:52.695Z,45.00
2019-05-19T08:06:27.137Z,44.92
2019-05-19T08:09:01.331Z,44.81
2019-05-19T08:11:37.553Z,44.73
2019-05-19T08:14:11.846Z,44.70
2019-05-19T08:16:46.275Z,44.58
2019-05-19T08:19:20.112Z,44.49
2019-05-19T08:21:54.359Z,44.44
2019-05-19T08:24:29.675Z,44.59
2019-05-19T08:27:04.052Z,44.30
2019-05-19T08:29:39.245Z,44.25
2019-05-19T08:32:13.714Z,44.17
2019-05-19T08:34:47.977Z,44.13
2019-05-19T08:37:22.231Z,43.94
2019-05-19T08:39:56.244Z,43.82
2019-05-19T08:42:30.697Z,43.79
2019-05-19T08:45:04.496Z,43.40
2019-05-19T08:47:39.122Z,43.41
2019-05-19T08:50:13.886Z,43.35
2019-05-19T08:52:48.157Z,43.30
2019-05-19T08:55:22.984Z,43.17
2019-05-19T08:57:57.996Z,42.96
2019-05-19T09:00:37.566Z,44.33
2019-05-19T09:03:08.301Z,44.73
2019-05-19T09:05:42.668Z,44.11
2019-05-19T09:08:16.489Z,42.98
2019-05-19T09:10:50.638Z,41.68
2019-05-19T09:13:24.877Z,40.68
2019-05-19T09:15:58.964Z,39.76
2019-05-19T09:18:33.173Z,38.91
2019-05-19T09:21:07.186Z,38.25
2019-05-19T09:23:41.604Z,37.59
2019-05-19T09:26:15.684Z,36.84
2019-05-19T09:28:49.837Z,36.59
2019-05-19T09:31:24.000Z,36.50
2019-05-19T09:33:58.166Z,36.12
2019-05-19T09:36:33.343Z,36.02
2019-05-19T09:39:09.284Z,35.79
2019-05-19T09:41:43.401Z,35.64
2019-05-19T09:44:17.643Z,35.56
2019-05-19T09:46:51.792Z,34.89
2019-05-19T09:49:36.496Z,34.40
2019-05-19T09:52:11.394Z,34.13
2019-05-19T09:54:45.998Z,33.84
2019-05-19T09:57:20.282Z,33.71
2019-05-19T09:59:54.514Z,33.50
2019-05-19T10:02:28.726Z,33.32
2019-05-19T10:05:02.706Z,33.24
2019-05-19T10:07:36.583Z,33.10
2019-05-19T10:10:17.612Z,33.06
2019-05-19T10:12:51.712Z,32.94
2019-05-19T10:15:25.720Z,32.86
2019-05-19T10:17:59.872Z,32.87
2019-05-19T10:20:34.251Z,32.87
2019-05-19T10:23:08.527Z,32.70
2019-05-19T10:25:42.874Z,32.67
2019-05-19T10:28:17.107Z,32.82
2019-05-19T10:30:51.318Z,32.60
2019-05-19T10:33:25.519Z,32.63
2019-05-19T10:35:59.815Z,32.51
2019-05-19T10:38:33.980Z,32.51
2019-05-19T10:41:08.360Z,32.45
2019-05-19T10:43:42.641Z,32.35
2019-05-19T10:46:16.920Z,32.33
2019-05-19T10:48:51.195Z,32.18
2019-05-19T10:51:25.600Z,32.16
2019-05-19T10:54:00.022Z,32.16
2019-05-19T10:56:34.241Z,32.10
2019-05-19T10:59:08.616Z,32.09
2019-05-19T11:01:42.748Z,32.16
2019-05-19T11:04:16.963Z,32.11
2019-05-19T11:06:50.956Z,32.16
2019-05-19T11:09:25.293Z,32.09
2019-05-19T11:11:59.388Z,32.08
2019-05-19T11:14:33.616Z,32.00
2019-05-19T11:17:07.976Z,31.99
2019-05-19T11:19:42.145Z,31.96
2019-05-19T11:22:16.605Z,31.95
2019-05-19T11:24:50.645Z,32.03
2019-05-19T11:27:24.715Z,31.97
2019-05-19T11:29:59.005Z,31.96
2019-05-19T11:32:32.886Z,31.89
2019-05-19T11:35:07.346Z,31.88
2019-05-19T11:37:41.494Z,31.79
2019-05-19T11:40:16.240Z,31.81
2019-05-19T11:42:50.320Z,31.78
2019-05-19T11:45:24.347Z,31.93
2019-05-19T11:47:58.608Z,31.83
2019-05-19T11:50:32.737Z,31.80
2019-05-19T11:53:07.188Z,31.66
2019-05-19T11:55:41.575Z,31.57
2019-05-19T11:58:16.086Z,31.50
2019-05-19T12:00:50.286Z,31.59
2019-05-19T12:03:24.734Z,31.51
2019-05-19T12:05:58.998Z,31.54
2019-05-19T12:08:33.291Z,31.62
2019-05-19T12:11:07.632Z,31.57
2019-05-19T12:13:41.806Z,31.61
2019-05-19T12:16:15.962Z,31.68
2019-05-19T12:18:50.286Z,31.58
2019-05-19T12:21:25.448Z,31.56
2019-05-19T12:23:59.621Z,31.52
2019-05-19T12:26:34.865Z,31.47
2019-05-19T12:29:09.072Z,31.47
2019-05-19T12:31:43.063Z,31.43
2019-05-19T12:34:17.098Z,31.37
2019-05-19T12:36:51.052Z,31.37
2019-05-19T12:39:25.088Z,31.39
2019-05-19T12:41:59.081Z,31.37
2019-05-19T12:44:33.341Z,31.37
2019-05-19T12:47:07.727Z,31.42
2019-05-19T12:49:41.793Z,31.38
2019-05-19T12:52:16.036Z,31.51
2019-05-19T12:54:50.130Z,31.46
2019-05-19T12:57:24.152Z,31.55
2019-05-19T12:59:58.243Z,31.42
2019-05-19T13:02:32.586Z,31.23
2019-05-19T13:05:06.695Z,30.84
2019-05-19T13:07:41.023Z,30.72
2019-05-19T13:10:15.050Z,31.01
2019-05-19T13:12:49.063Z,31.13
2019-05-19T13:15:23.428Z,31.28
2019-05-19T13:17:57.710Z,31.48
2019-05-19T13:20:32.044Z,31.61
2019-05-19T13:23:06.287Z,31.78
2019-05-19T13:25:40.647Z,31.96
2019-05-19T13:28:14.884Z,32.11
2019-05-19T13:30:49.344Z,32.29
2019-05-19T13:33:23.691Z,32.47
2019-05-19T13:35:58.301Z,32.58
2019-05-19T13:38:32.340Z,32.73
2019-05-19T13:41:06.580Z,32.87
2019-05-19T13:43:40.644Z,32.99
2019-05-19T13:46:14.984Z,33.07
2019-05-19T13:48:49.038Z,33.24
2019-05-19T13:51:23.432Z,33.39
2019-05-19T13:53:57.526Z,33.49
2019-05-19T13:56:31.869Z,33.61
2019-05-19T13:59:06.042Z,33.74
2019-05-19T14:01:40.154Z,33.89
2019-05-19T14:04:14.280Z,34.01
2019-05-19T14:06:48.644Z,34.14
2019-05-19T14:09:22.869Z,34.23
2019-05-19T14:11:57.438Z,34.29
2019-05-19T14:14:31.459Z,34.37
2019-05-19T14:17:05.752Z,34.49
2019-05-19T14:19:39.980Z,34.52
2019-05-19T14:22:14.151Z,34.83
2019-05-19T14:24:48.151Z,34.62
2019-05-19T14:27:30.048Z,35.34
2019-05-19T14:29:58.874Z,35.34
2019-05-19T14:32:33.252Z,35.50
2019-05-19T14:35:09.878Z,35.68
2019-05-19T14:37:45.793Z,35.96
2019-05-19T14:40:21.014Z,35.96
2019-05-19T14:43:01.272Z,36.02
2019-05-19T14:45:35.273Z,36.25
2019-05-19T14:48:09.506Z,36.25
2019-05-19T14:50:43.698Z,36.37
2019-05-19T14:53:17.894Z,36.33
2019-05-19T14:55:51.941Z,36.43
2019-05-19T14:58:25.935Z,36.48
2019-05-19T15:01:04.094Z,36.57
2019-05-19T15:03:38.283Z,36.53
2019-05-19T15:06:12.506Z,36.53
2019-05-19T15:08:46.766Z,36.75
2019-05-19T15:11:20.928Z,36.81
2019-05-19T15:13:55.137Z,36.88
2019-05-19T15:16:29.191Z,36.88
2019-05-19T15:19:03.348Z,36.88
2019-05-19T15:21:37.420Z,37.07
2019-05-19T15:24:11.360Z,37.14
2019-05-19T15:26:45.613Z,37.16
2019-05-19T15:29:19.845Z,37.23
2019-05-19T15:31:54.021Z,37.23
2019-05-19T15:34:28.271Z,37.47
2019-05-19T15:37:06.134Z,37.47
2019-05-19T15:39:40.458Z,37.43
2019-05-19T15:42:14.715Z,37.63
2019-05-19T15:44:48.692Z,37.31
2019-05-19T15:47:22.755Z,37.40
2019-05-19T15:49:56.680Z,37.41
2019-05-19T15:52:30.664Z,37.42
2019-05-19T15:55:04.688Z,37.60
2019-05-19T15:57:38.736Z,37.69
2019-05-19T16:00:13.760Z,37.71
2019-05-19T16:02:48.001Z,37.73
2019-05-19T16:05:22.041Z,37.77
2019-05-19T16:07:56.342Z,37.80
2019-05-19T16:10:30.539Z,37.83
2019-05-19T16:13:04.662Z,37.90
2019-05-19T16:15:38.854Z,37.94
2019-05-19T16:18:13.014Z,38.00
2019-05-19T16:20:47.106Z,37.98
2019-05-19T16:23:22.415Z,38.03
2019-05-19T16:26:39.780Z,37.68
2019-05-19T16:29:13.904Z,36.62
2019-05-19T16:31:48.411Z,35.35
2019-05-19T16:34:23.602Z,34.49
2019-05-19T16:36:58.882Z,33.77
2019-05-19T16:39:33.025Z,33.45
2019-05-19T16:42:07.180Z,33.05
2019-05-19T16:44:41.562Z,32.50
2019-05-19T16:47:15.577Z,31.89
2019-05-19T16:49:49.660Z,33.43
2019-05-19T16:52:23.833Z,35.40
2019-05-19T16:55:15.237Z,34.67
2019-05-19T16:57:49.382Z,34.02
2019-05-19T17:00:24.228Z,33.47
2019-05-19T17:02:58.598Z,33.44
2019-05-19T17:05:33.007Z,33.23
2019-05-19T17:08:07.364Z,32.52
2019-05-19T17:10:41.581Z,31.94
2019-05-19T17:13:15.441Z,31.37
2019-05-19T17:15:49.750Z,30.83
2019-05-19T17:18:23.657Z,30.33
2019-05-19T17:20:57.811Z,30.05
2019-05-19T17:23:32.245Z,29.66
2019-05-19T17:26:06.663Z,29.29
2019-05-19T17:28:40.641Z,29.01
2019-05-19T17:31:14.805Z,28.79
2019-05-19T17:33:48.910Z,28.54
2019-05-19T17:36:23.125Z,28.45
2019-05-19T17:38:56.998Z,28.36
2019-05-19T17:41:31.258Z,28.28
2019-05-19T17:44:05.856Z,28.21
2019-05-19T17:46:39.880Z,28.02
2019-05-19T17:49:13.987Z,27.85
2019-05-19T17:51:48.141Z,27.75
2019-05-19T17:54:22.673Z,27.68
2019-05-19T17:56:56.848Z,27.55
2019-05-19T17:59:31.737Z,27.60
2019-05-19T18:02:06.141Z,27.60
2019-05-19T18:04:41.206Z,27.65
2019-05-19T18:07:15.305Z,27.70
2019-05-19T18:09:49.470Z,27.68
2019-05-19T18:12:24.468Z,27.71
2019-05-19T18:14:58.502Z,27.73
2019-05-19T18:17:32.693Z,27.65
2019-05-19T18:20:06.786Z,27.69
2019-05-19T18:22:40.770Z,27.71
2019-05-19T18:25:14.923Z,27.76
2019-05-19T18:27:49.398Z,27.75
2019-05-19T18:30:23.913Z,27.79
2019-05-19T18:32:58.035Z,27.83
2019-05-19T18:35:32.336Z,27.78
2019-05-19T18:38:06.716Z,27.75
2019-05-19T18:40:40.993Z,27.75
2019-05-19T18:43:15.266Z,27.73
2019-05-19T18:45:49.388Z,27.71
2019-05-19T18:48:23.868Z,27.66
2019-05-19T18:50:58.287Z,27.72
2019-05-19T18:53:32.876Z,27.72
2019-05-19T18:56:07.303Z,27.73
2019-05-19T18:58:41.782Z,27.67
2019-05-19T19:01:16.061Z,27.67
2019-05-19T19:03:50.882Z,27.73
2019-05-19T19:06:25.365Z,27.87
2019-05-19T19:08:59.801Z,27.93
2019-05-19T19:11:34.187Z,27.99
2019-05-19T19:14:08.597Z,28.04
2019-05-19T19:16:42.842Z,28.09
2019-05-19T19:19:17.550Z,28.12
2019-05-19T19:21:51.829Z,28.17
2019-05-19T19:24:26.423Z,28.17
2019-05-19T19:27:00.581Z,28.20
2019-05-19T19:29:34.899Z,28.23
2019-05-19T19:32:09.442Z,28.22
2019-05-19T19:34:44.676Z,28.24
2019-05-19T19:37:18.964Z,28.27
2019-05-19T19:39:53.275Z,28.24
2019-05-19T19:42:27.486Z,28.26
2019-05-19T19:45:01.761Z,28.29
2019-05-19T19:47:36.176Z,28.54
2019-05-19T19:50:10.269Z,28.71
2019-05-19T19:52:44.545Z,28.86
2019-05-19T19:55:18.861Z,28.89
2019-05-19T19:57:53.170Z,28.89
2019-05-19T20:00:46.235Z,30.63
2019-05-19T20:03:20.639Z,32.08
2019-05-19T20:05:55.202Z,32.45
2019-05-19T20:08:29.547Z,32.60
2019-05-19T20:11:03.883Z,33.49
2019-05-19T20:13:37.952Z,35.31
2019-05-19T20:16:12.336Z,35.85
2019-05-19T20:18:46.544Z,36.19
2019-05-19T20:21:20.663Z,37.29
2019-05-19T20:23:55.131Z,37.31
2019-05-19T20:26:29.811Z,37.41
2019-05-19T20:29:04.252Z,37.58
2019-05-19T20:31:38.427Z,38.11
2019-05-19T20:34:12.862Z,38.52
2019-05-19T20:36:47.052Z,38.73
2019-05-19T20:39:21.493Z,38.93
2019-05-19T20:41:55.807Z,38.94
2019-05-19T20:44:31.169Z,39.09
2019-05-19T20:47:05.652Z,38.49
2019-05-19T20:49:39.848Z,38.28
2019-05-19T20:52:14.179Z,39.13
2019-05-19T20:54:48.603Z,39.45
2019-05-19T20:57:23.155Z,39.54
2019-05-19T20:59:57.731Z,39.75
2019-05-19T21:02:31.893Z,39.78
2019-05-19T21:05:06.529Z,39.79
2019-05-19T21:07:40.716Z,39.78
2019-05-19T21:10:15.196Z,39.16
2019-05-19T21:12:49.727Z,39.48
2019-05-19T21:15:24.183Z,40.25
2019-05-19T21:17:59.023Z,40.77
2019-05-19T21:20:34.014Z,41.15
2019-05-19T21:23:08.866Z,40.65
2019-05-19T21:25:43.491Z,40.84
2019-05-19T21:28:18.719Z,40.85
2019-05-19T21:31:04.870Z,41.51
2019-05-19T21:33:34.453Z,40.24
2019-05-19T21:36:09.459Z,40.81
2019-05-19T21:38:43.957Z,41.55
2019-05-19T21:41:19.108Z,41.69
2019-05-19T21:43:53.729Z,41.77
2019-05-19T21:46:34.566Z,41.99
2019-05-19T21:49:09.407Z,42.11
2019-05-19T21:51:44.246Z,42.27
2019-05-19T21:54:18.996Z,42.39
2019-05-19T21:56:54.975Z,42.37
2019-05-19T21:59:29.500Z,42.73
2019-05-19T22:02:04.712Z,42.60
2019-05-19T22:04:39.383Z,42.23
2019-05-19T22:07:25.307Z,42.39
2019-05-19T22:10:00.014Z,43.03
2019-05-19T22:12:34.741Z,42.78
2019-05-19T22:15:12.244Z,42.55
2019-05-19T22:17:46.956Z,42.43
2019-05-19T22:20:21.812Z,42.36
2019-05-19T22:22:56.485Z,42.20
2019-05-19T22:25:30.879Z,41.55
2019-05-19T22:28:05.774Z,41.58
2019-05-19T22:30:40.436Z,42.60
2019-05-19T22:33:15.018Z,42.64
2019-05-19T22:35:50.178Z,42.25
2019-05-19T22:38:24.753Z,41.65
2019-05-19T22:40:59.433Z,41.69
2019-05-19T22:43:34.290Z,41.72
2019-05-19T22:46:08.642Z,41.53
2019-05-19T22:48:43.147Z,40.95
2019-05-19T22:51:17.637Z,41.72
2019-05-19T22:53:52.592Z,42.17
2019-05-19T22:56:27.204Z,42.31
2019-05-19T22:59:01.844Z,42.40
2019-05-19T23:01:50.721Z,42.49
2019-05-19T23:04:12.901Z,42.59
2019-05-19T23:06:47.859Z,42.38
2019-05-19T23:09:22.096Z,41.32
2019-05-19T23:11:56.745Z,41.43
2019-05-19T23:14:31.234Z,42.18
2019-05-19T23:17:05.495Z,42.31
2019-05-19T23:19:40.827Z,42.46
2019-05-19T23:22:15.115Z,42.37
2019-05-19T23:24:49.423Z,42.29
2019-05-19T23:27:23.571Z,42.36
2019-05-19T23:29:57.679Z,42.35
2019-05-19T23:32:31.653Z,41.69
2019-05-19T23:35:05.888Z,42.35
2019-05-19T23:37:40.195Z,42.43
2019-05-19T23:40:14.491Z,42.24
2019-05-19T23:42:48.504Z,42.82
2019-05-19T23:45:22.571Z,43.27
2019-05-19T23:47:56.492Z,43.57
2019-05-19T23:50:30.700Z,43.69
2019-05-19T23:53:04.751Z,43.45
2019-05-19T23:55:38.787Z,42.78
2019-05-19T23:58:12.745Z,43.93
